Time;durP1;ratioP1;P1;durP2;ratioP2;P2;SDS_P1;SDS_P2;PMS_P1;PMS_P2;Temp;Humidity;BMP_temperature;BMP_pressure;BME280_temperature;BME280_humidity;BME280_pressure;Samples;Min_cycle;Max_cycle;Signal;HPM_P1;HPM_P2
2021/01/07 00:01:41;;;;;;;7.03;4.37;;;5.00;93.30;12.80;98866.00;;;;5050905;28;20240;-69
2021/01/07 00:04:08;;;;;;;7.05;5.20;;;5.00;93.30;12.80;98861.00;;;;5034976;28;20273;-71
2021/01/07 00:06:34;;;;;;;7.47;5.30;;;5.00;93.30;12.60;98878.00;;;;5017722;28;20186;-68
2021/01/07 00:09:00;;;;;;;6.15;4.65;;;5.00;93.30;12.70;98873.00;;;;5032729;28;20201;-70
2021/01/07 00:11:26;;;;;;;6.73;4.70;;;5.00;93.30;12.80;98879.00;;;;5052650;28;20232;-69
2021/01/07 00:13:53;;;;;;;7.13;4.90;;;5.00;93.30;12.80;98882.00;;;;5050775;28;20276;-69
2021/01/07 00:16:18;;;;;;;6.75;5.10;;;5.00;93.30;12.80;98865.00;;;;5035238;28;20244;-70
2021/01/07 00:18:44;;;;;;;6.13;4.17;;;5.00;93.30;12.80;98879.00;;;;5017938;28;20669;-69
2021/01/07 00:21:11;;;;;;;6.65;4.50;;;5.00;93.30;12.80;98877.00;;;;5016358;28;20186;-68
2021/01/07 00:23:37;;;;;;;7.40;4.82;;;5.00;93.30;12.80;98876.00;;;;5052254;28;20735;-69
2021/01/07 00:26:03;;;;;;;5.60;3.97;;;5.00;93.30;12.70;98885.00;;;;5050402;28;20174;-68
2021/01/07 00:28:28;;;;;;;5.37;4.20;;;5.00;93.30;12.80;98885.00;;;;5051266;28;20611;-68
2021/01/07 00:30:54;;;;;;;6.80;5.10;;;5.00;93.70;12.80;98879.00;;;;5052183;28;20174;-68
2021/01/07 00:33:20;;;;;;;7.07;5.00;;;5.00;93.60;12.80;98887.00;;;;5050619;28;20269;-68
2021/01/07 00:35:46;;;;;;;6.30;4.60;;;5.00;93.30;12.80;98891.00;;;;5032671;28;20415;-69
2021/01/07 00:38:11;;;;;;;7.23;4.67;;;5.00;93.30;12.70;98886.00;;;;5050757;28;20576;-68
2021/01/07 00:40:37;;;;;;;5.90;4.00;;;5.00;93.30;12.80;98896.00;;;;5032439;28;20178;-69
2021/01/07 00:43:03;;;;;;;5.67;4.13;;;5.00;93.30;12.80;98885.00;;;;5050050;28;20202;-69
2021/01/07 00:45:29;;;;;;;6.90;4.87;;;5.00;93.30;12.60;98879.00;;;;5049907;28;20667;-68
2021/01/07 00:47:55;;;;;;;6.47;4.85;;;5.00;93.30;12.80;98848.00;;;;5049932;28;20535;-69
2021/01/07 00:50:21;;;;;;;6.03;4.57;;;5.00;93.30;12.80;98880.00;;;;5032874;28;20272;-71
2021/01/07 00:52:47;;;;;;;5.20;3.70;;;5.00;93.30;12.80;98888.00;;;;5050102;28;20205;-69
2021/01/07 00:55:17;;;;;;;5.93;4.13;;;5.00;93.30;12.90;98915.00;;;;5049197;28;20213;-71
2021/01/07 00:57:42;;;;;;;6.38;4.47;;;5.00;93.30;12.70;98903.00;;;;5049925;28;20205;-70
2021/01/07 01:00:14;;;;;;;5.97;4.10;;;5.00;93.30;12.90;98909.00;;;;5049537;28;20182;-69
2021/01/07 01:02:40;;;;;;;6.35;4.00;;;5.00;93.30;12.90;98913.00;;;;5050860;28;20206;-70
2021/01/07 01:05:07;;;;;;;6.07;4.00;;;5.00;93.30;12.90;98916.00;;;;5033496;28;20193;-70
2021/01/07 01:07:33;;;;;;;6.22;4.25;;;5.00;93.30;12.80;98917.00;;;;5034111;28;20339;-69
2021/01/07 01:09:59;;;;;;;5.28;3.75;;;5.00;93.30;12.90;98912.00;;;;5050094;28;20224;-70
2021/01/07 01:12:24;;;;;;;6.18;3.88;;;5.00;93.60;12.60;98919.00;;;;5050113;28;20672;-69
2021/01/07 01:14:50;;;;;;;6.37;4.50;;;5.00;93.20;12.80;98928.00;;;;5051773;28;20209;-69
2021/01/07 01:17:16;;;;;;;4.90;3.53;;;5.00;93.30;12.70;98932.00;;;;5050191;28;20216;-69
2021/01/07 01:19:42;;;;;;;5.73;3.60;;;5.00;93.30;12.90;98935.00;;;;5050411;28;20178;-71
2021/01/07 01:22:08;;;;;;;5.13;3.75;;;5.00;93.20;12.90;98928.00;;;;5049905;28;20277;-69
2021/01/07 01:24:34;;;;;;;4.80;3.27;;;5.00;93.30;12.90;98929.00;;;;5032080;28;20589;-69
2021/01/07 01:27:00;;;;;;;6.27;4.13;;;5.00;93.30;12.90;98931.00;;;;5029666;28;20202;-70
2021/01/07 01:29:26;;;;;;;5.25;3.80;;;5.00;93.30;12.80;98934.00;;;;5049790;28;20284;-69
2021/01/07 01:31:52;;;;;;;5.97;3.70;;;5.00;93.30;12.80;98937.00;;;;5049165;28;20345;-69
2021/01/07 01:34:24;;;;;;;5.20;3.60;;;5.00;93.30;12.70;98936.00;;;;5049991;28;20284;-70
2021/01/07 01:36:51;;;;;;;4.75;3.42;;;5.00;93.70;12.70;98929.00;;;;5048132;28;20536;-69
2021/01/07 01:39:17;;;;;;;5.53;3.70;;;5.00;93.30;12.60;98899.00;;;;5047201;28;20178;-69
2021/01/07 01:41:48;;;;;;;4.90;3.20;;;5.00;93.20;12.60;98948.00;;;;5050095;28;20186;-69
2021/01/07 01:44:14;;;;;;;5.03;3.35;;;5.00;93.30;12.80;98936.00;;;;5049638;28;20932;-69
2021/01/07 01:46:40;;;;;;;5.97;3.55;;;5.00;93.20;12.90;98932.00;;;;5049430;28;20197;-69
2021/01/07 01:49:06;;;;;;;5.87;4.07;;;5.00;93.20;12.80;98937.00;;;;5050066;28;20178;-69
2021/01/07 01:51:33;;;;;;;5.65;3.55;;;5.00;93.20;12.90;98931.00;;;;5048511;28;20788;-69
2021/01/07 01:53:58;;;;;;;4.80;3.20;;;5.00;93.20;12.80;98950.00;;;;5049388;28;20279;-69
2021/01/07 01:56:24;;;;;;;5.63;3.67;;;5.00;93.60;12.80;98951.00;;;;5049289;28;20186;-69
2021/01/07 01:58:50;;;;;;;5.60;3.17;;;5.00;93.20;12.80;98951.00;;;;5049773;28;20710;-69
2021/01/07 02:01:17;;;;;;;5.78;3.88;;;5.00;93.20;12.80;98950.00;;;;5049156;28;20269;-70
2021/01/07 02:03:43;;;;;;;5.80;3.30;;;5.00;93.30;12.80;98951.00;;;;5049563;28;20202;-69
2021/01/07 02:06:12;;;;;;;5.60;3.80;;;5.00;93.20;12.50;98947.00;;;;5031454;28;20182;-71
2021/01/07 02:08:39;;;;;;;5.22;3.40;;;5.00;93.20;12.70;98943.00;;;;5049468;28;20946;-69
2021/01/07 02:11:05;;;;;;;5.00;3.50;;;5.00;93.20;12.90;98945.00;;;;5032525;28;20232;-69
2021/01/07 02:13:31;;;;;;;4.20;2.80;;;5.00;93.20;12.70;98957.00;;;;5031968;28;20604;-69
2021/01/07 02:15:57;;;;;;;4.73;3.50;;;5.00;93.30;12.70;98946.00;;;;5049298;28;20248;-69
2021/01/07 02:18:23;;;;;;;5.35;3.38;;;5.00;93.20;12.60;98949.00;;;;5049049;28;20451;-69
2021/01/07 02:20:48;;;;;;;4.77;3.53;;;5.00;93.20;12.70;98945.00;;;;5048702;28;20570;-70
2021/01/07 02:23:14;;;;;;;4.50;3.00;;;5.00;93.20;12.70;98938.00;;;;5049231;28;20202;-69
2021/01/07 02:25:40;;;;;;;5.43;3.07;;;5.00;93.20;12.80;98946.00;;;;5049253;28;20182;-69
2021/01/07 02:28:07;;;;;;;5.90;3.43;;;5.00;93.20;12.80;98941.00;;;;5048861;28;20739;-69
2021/01/07 02:30:32;;;;;;;4.93;2.83;;;4.90;93.20;12.80;98944.00;;;;5048816;28;20175;-69
2021/01/07 02:32:58;;;;;;;5.30;3.10;;;5.00;93.30;12.80;98947.00;;;;5049062;28;20363;-69
2021/01/07 02:35:25;;;;;;;4.70;2.97;;;5.00;93.20;12.70;98959.00;;;;5048612;28;20212;-69
2021/01/07 02:37:50;;;;;;;4.72;3.13;;;4.90;93.20;12.80;98945.00;;;;5032611;28;20205;-69
2021/01/07 02:40:16;;;;;;;4.50;2.93;;;5.00;93.20;12.70;98943.00;;;;5048732;28;20522;-69
2021/01/07 02:42:42;;;;;;;4.50;2.90;;;4.90;93.20;12.80;98950.00;;;;5048517;28;20213;-69
2021/01/07 02:45:08;;;;;;;5.57;3.00;;;4.90;93.20;12.80;98961.00;;;;5048482;28;20280;-69
2021/01/07 02:48:07;;;;;;;4.03;2.80;;;4.90;93.20;12.80;98963.00;;;;5032044;28;20198;-69
2021/01/07 02:50:32;;;;;;;5.55;3.30;;;4.90;93.20;12.80;98951.00;;;;5049517;28;20213;-69
2021/01/07 02:52:58;;;;;;;5.00;3.17;;;4.90;93.20;12.80;98951.00;;;;5031618;28;20252;-69
2021/01/07 02:55:24;;;;;;;4.17;2.43;;;4.90;93.20;12.80;98959.00;;;;5048089;28;20213;-69
2021/01/07 02:57:49;;;;;;;5.03;3.33;;;4.90;93.20;12.70;98961.00;;;;5048247;28;20295;-69
2021/01/07 03:00:15;;;;;;;5.20;3.13;;;4.90;93.20;12.70;98964.00;;;;5032009;28;20182;-69
2021/01/07 03:02:41;;;;;;;4.72;2.92;;;4.90;93.20;12.70;98951.00;;;;5048535;28;20229;-69
2021/01/07 03:05:07;;;;;;;4.70;3.20;;;4.90;93.20;12.60;98964.00;;;;5048326;28;20656;-70
2021/01/07 03:07:33;;;;;;;4.45;3.08;;;4.90;93.20;12.80;98955.00;;;;5049186;28;20206;-69
2021/01/07 03:09:59;;;;;;;4.40;3.00;;;4.90;93.20;12.70;98963.00;;;;5031721;28;20193;-69
2021/01/07 03:12:24;;;;;;;4.13;2.70;;;4.90;93.20;12.60;98971.00;;;;5048057;28;20611;-69
2021/01/07 03:14:50;;;;;;;4.63;2.90;;;4.90;93.20;12.60;98961.00;;;;5048870;28;20221;-71
2021/01/07 03:17:16;;;;;;;4.43;2.77;;;4.90;93.20;12.80;98975.00;;;;5047733;28;20202;-69
2021/01/07 03:19:42;;;;;;;4.77;2.80;;;4.90;93.20;12.80;98969.00;;;;5048914;28;20655;-69
2021/01/07 03:22:07;;;;;;;4.70;2.70;;;4.90;93.20;12.70;98960.00;;;;5047554;28;20206;-69
2021/01/07 03:24:33;;;;;;;4.40;2.90;;;4.90;93.20;12.60;98972.00;;;;5048570;28;20184;-69
2021/01/07 03:27:00;;;;;;;4.50;2.90;;;4.90;93.20;12.70;98978.00;;;;5048498;28;20432;-69
2021/01/07 03:29:26;;;;;;;5.32;2.75;;;4.90;93.20;12.80;98970.00;;;;5048182;28;20664;-70
2021/01/07 03:31:52;;;;;;;3.60;2.00;;;4.90;93.20;12.60;98980.00;;;;5031337;28;20716;-69
2021/01/07 03:34:18;;;;;;;4.37;2.93;;;4.90;93.20;12.80;98976.00;;;;5048139;28;20252;-70
2021/01/07 03:36:43;;;;;;;4.40;2.77;;;4.90;93.20;12.80;98983.00;;;;5047703;28;20407;-69
2021/01/07 03:39:10;;;;;;;5.03;2.50;;;4.90;93.20;12.70;98987.00;;;;5048295;28;20232;-70
2021/01/07 03:41:36;;;;;;;4.82;2.85;;;4.90;93.20;12.70;98979.00;;;;5031341;28;20182;-69
2021/01/07 03:44:02;;;;;;;5.18;3.15;;;4.90;93.20;12.70;98995.00;;;;5048097;28;20202;-70
2021/01/07 03:46:28;;;;;;;4.68;3.00;;;4.90;93.20;12.60;98987.00;;;;5048965;28;20269;-70
2021/01/07 03:48:54;;;;;;;4.20;2.57;;;4.90;93.20;12.60;98986.00;;;;5047930;28;20665;-70
2021/01/07 03:51:19;;;;;;;4.80;2.30;;;4.90;93.20;12.60;98995.00;;;;5047722;28;20185;-69
2021/01/07 03:53:45;;;;;;;3.60;2.20;;;4.90;93.20;12.60;99000.00;;;;5047370;28;20263;-70
2021/01/07 03:56:11;;;;;;;5.00;2.50;;;4.90;93.20;12.70;99001.00;;;;5049592;28;20194;-70
2021/01/07 03:58:36;;;;;;;3.17;2.07;;;4.90;93.20;12.70;99005.00;;;;5031281;28;20225;-70
2021/01/07 04:01:03;;;;;;;4.10;2.60;;;4.90;93.20;12.60;98997.00;;;;5048176;28;20257;-70
2021/01/07 04:03:29;;;;;;;5.00;3.08;;;4.90;93.20;12.60;99007.00;;;;5034936;28;20190;-69
2021/01/07 04:05:54;;;;;;;4.43;2.50;;;4.90;93.20;12.60;98998.00;;;;5051886;28;20205;-69
2021/01/07 04:08:20;;;;;;;4.90;2.73;;;4.90;93.20;12.60;98991.00;;;;5034074;28;20225;-69
2021/01/07 04:10:46;;;;;;;4.00;2.70;;;4.90;93.20;12.60;99004.00;;;;5052140;28;20183;-70
2021/01/07 04:13:11;;;;;;;4.03;2.43;;;4.90;93.10;12.70;99002.00;;;;5051046;28;20198;-69
2021/01/07 04:15:37;;;;;;;4.23;2.80;;;4.90;93.20;12.60;99014.00;;;;5051147;28;20218;-69
2021/01/07 04:18:03;;;;;;;3.90;1.90;;;4.90;93.10;12.60;99002.00;;;;5034497;28;20275;-69
2021/01/07 04:20:28;;;;;;;3.80;2.50;;;4.90;93.20;12.70;99008.00;;;;5052121;28;20664;-71
2021/01/07 04:22:54;;;;;;;3.90;2.60;;;4.90;93.10;12.60;99011.00;;;;5050913;28;20216;-69
2021/01/07 04:25:20;;;;;;;4.50;2.90;;;4.90;93.20;12.60;99010.00;;;;5051176;28;20193;-69
2021/01/07 04:27:45;;;;;;;4.70;2.80;;;4.90;93.20;12.60;99014.00;;;;5051924;28;20202;-69
2021/01/07 04:30:12;;;;;;;4.30;2.60;;;4.90;93.20;12.30;99016.00;;;;5051584;28;20190;-69
2021/01/07 04:32:38;;;;;;;4.20;2.42;;;4.90;93.20;12.50;99025.00;;;;5050602;28;20697;-69
2021/01/07 04:35:06;;;;;;;4.10;2.40;;;4.90;93.20;12.60;99017.00;;;;5051052;28;20219;-69
2021/01/07 04:37:31;;;;;;;4.00;2.67;;;4.90;93.20;12.50;99019.00;;;;5050619;28;20265;-69
2021/01/07 04:39:57;;;;;;;4.00;2.40;;;4.90;93.20;12.50;99021.00;;;;5050726;28;20181;-70
2021/01/07 04:42:23;;;;;;;4.80;3.13;;;4.90;93.20;12.40;99024.00;;;;5051862;28;20239;-69
2021/01/07 04:44:48;;;;;;;4.80;2.90;;;4.90;93.20;12.40;99031.00;;;;5051137;28;20186;-69
2021/01/07 04:47:17;;;;;;;4.93;2.40;;;4.90;93.20;12.50;99018.00;;;;5034152;28;20620;-69
2021/01/07 04:49:43;;;;;;;4.00;2.80;;;4.90;93.20;12.50;99020.00;;;;5034250;28;20190;-69
2021/01/07 04:52:09;;;;;;;4.60;2.33;;;4.90;93.10;12.70;99022.00;;;;5050649;28;20206;-69
2021/01/07 04:54:34;;;;;;;4.40;2.70;;;4.90;93.50;12.60;99040.00;;;;5050229;28;20205;-70
2021/01/07 04:57:01;;;;;;;4.07;2.10;;;4.90;93.20;12.60;99035.00;;;;5033958;28;20533;-70
2021/01/07 04:59:27;;;;;;;4.72;2.55;;;4.90;93.20;12.60;99027.00;;;;5050532;28;20220;-69
2021/01/07 05:01:52;;;;;;;5.40;2.63;;;4.90;93.10;12.50;99044.00;;;;5050788;28;20198;-69
2021/01/07 05:04:18;;;;;;;3.63;2.30;;;4.90;93.10;12.50;99048.00;;;;5050495;28;20543;-71
2021/01/07 05:06:48;;;;;;;4.20;2.47;;;4.90;93.20;12.50;99039.00;;;;5050303;28;20185;-69
2021/01/07 05:09:13;;;;;;;4.32;2.60;;;4.80;93.10;12.60;99042.00;;;;5050033;28;20182;-69
2021/01/07 05:11:39;;;;;;;4.23;2.37;;;4.90;93.20;12.60;99039.00;;;;5050417;28;20201;-69
2021/01/07 05:14:07;;;;;;;3.80;2.20;;;4.90;93.10;12.60;99036.00;;;;5049426;28;20981;-69
2021/01/07 05:16:33;;;;;;;4.05;2.63;;;4.80;93.10;12.40;99043.00;;;;5033375;28;20220;-69
2021/01/07 05:19:02;;;;;;;3.80;2.60;;;4.90;93.20;12.60;99037.00;;;;5050085;28;20225;-69
2021/01/07 05:21:28;;;;;;;4.03;2.35;;;4.80;93.10;12.40;99060.00;;;;5050426;28;20442;-69
2021/01/07 05:23:54;;;;;;;4.80;2.67;;;4.80;93.10;12.40;99050.00;;;;5032811;28;20233;-69
2021/01/07 05:26:21;;;;;;;4.20;2.20;;;4.80;93.10;12.50;99051.00;;;;5033491;28;20182;-69
2021/01/07 05:28:48;;;;;;;3.65;2.15;;;4.80;93.10;12.50;99051.00;;;;5049785;28;20449;-69
2021/01/07 05:31:20;;;;;;;3.72;2.42;;;4.90;93.20;12.60;99042.00;;;;5053655;28;20282;-69
2021/01/07 05:33:46;;;;;;;4.20;2.08;;;4.80;93.10;12.40;99042.00;;;;5033047;28;20295;-68
2021/01/07 05:36:22;;;;;;;3.90;2.20;;;4.90;93.10;12.40;99052.00;;;;5049667;28;20652;-69
2021/01/07 05:38:49;;;;;;;3.85;1.80;;;4.80;93.10;12.30;99050.00;;;;5050285;28;20467;-69
2021/01/07 05:41:15;;;;;;;4.50;2.65;;;4.80;93.10;12.40;99058.00;;;;5050402;28;20178;-69
2021/01/07 05:43:45;;;;;;;3.40;2.00;;;4.80;93.10;12.40;99047.00;;;;5049387;28;20279;-69
2021/01/07 05:46:12;;;;;;;4.20;2.40;;;4.80;93.10;12.20;99049.00;;;;5049137;28;20182;-69
2021/01/07 05:48:38;;;;;;;4.45;2.47;;;4.80;93.10;12.20;99057.00;;;;5050651;28;20206;-69
2021/01/07 05:51:04;;;;;;;3.95;2.30;;;4.80;93.10;12.30;99059.00;;;;5049551;28;20182;-69
2021/01/07 05:53:33;;;;;;;4.70;2.70;;;4.80;93.10;12.30;99060.00;;;;5032678;28;20217;-69
2021/01/07 05:55:58;;;;;;;4.78;2.80;;;4.80;93.10;12.40;99051.00;;;;5049754;28;20256;-69
2021/01/07 05:58:24;;;;;;;3.90;2.33;;;4.80;93.10;12.40;99054.00;;;;5032715;28;20625;-69
2021/01/07 06:00:51;;;;;;;4.07;2.43;;;4.80;93.10;12.30;99070.00;;;;5049211;28;20187;-69
2021/01/07 06:03:19;;;;;;;3.83;2.25;;;4.80;93.50;12.50;99063.00;;;;5049327;28;20395;-69
2021/01/07 06:05:45;;;;;;;4.13;2.55;;;4.80;93.10;12.50;99065.00;;;;5032494;28;20186;-69
2021/01/07 06:08:12;;;;;;;3.80;2.60;;;4.80;93.10;12.60;99075.00;;;;5049388;28;20213;-69
2021/01/07 06:10:38;;;;;;;3.80;2.45;;;4.80;93.10;12.60;99068.00;;;;5048999;28;20494;-69
2021/01/07 06:13:04;;;;;;;4.00;2.30;;;4.80;93.10;12.30;99069.00;;;;5048990;28;20392;-68
2021/01/07 06:15:29;;;;;;;3.77;2.00;;;4.80;93.10;12.50;99074.00;;;;5049145;28;20210;-69
2021/01/07 06:17:55;;;;;;;3.60;2.10;;;4.80;93.10;12.50;99076.00;;;;5048992;28;20202;-69
2021/01/07 06:20:22;;;;;;;3.30;1.90;;;4.80;93.10;12.60;99065.00;;;;5048884;28;20665;-69
2021/01/07 06:22:50;;;;;;;4.32;2.60;;;4.80;93.10;12.20;99080.00;;;;5049008;28;20579;-69
2021/01/07 06:25:17;;;;;;;3.80;2.25;;;4.80;93.10;12.20;99074.00;;;;5065255;28;20277;-69
2021/01/07 06:27:44;;;;;;;3.95;2.35;;;4.80;93.10;12.40;99088.00;;;;5048764;28;21441;-69
2021/01/07 06:30:30;;;;;;;4.40;2.50;;;4.80;93.10;12.40;99087.00;;;;5049318;28;20182;-69
2021/01/07 06:33:08;;;;;;;4.07;2.55;;;4.80;93.10;12.30;99071.00;;;;5050145;28;20245;-69
2021/01/07 06:35:37;;;;;;;4.65;2.50;;;4.80;93.10;12.30;99083.00;;;;5048773;28;20626;-69
2021/01/07 06:38:03;;;;;;;3.80;2.05;;;4.80;93.10;12.30;99084.00;;;;5031485;28;20258;-69
2021/01/07 06:40:28;;;;;;;4.20;2.27;;;4.80;93.10;12.30;99078.00;;;;5032407;28;20643;-70
2021/01/07 06:42:55;;;;;;;3.77;2.43;;;4.80;93.10;12.30;99082.00;;;;5065245;28;20205;-69
2021/01/07 06:45:22;;;;;;;3.72;2.38;;;4.80;93.10;12.40;99089.00;;;;5031814;28;20802;-70
2021/01/07 06:47:50;;;;;;;3.75;2.15;;;4.80;93.10;12.40;99091.00;;;;5048341;28;20198;-69
2021/01/07 06:50:16;;;;;;;4.43;2.30;;;4.80;93.10;12.30;99093.00;;;;5048819;28;20178;-69
2021/01/07 06:52:43;;;;;;;3.33;2.00;;;4.80;93.10;12.20;99093.00;;;;5048387;28;20202;-70
2021/01/07 06:55:12;;;;;;;3.90;2.33;;;4.80;93.10;12.40;99101.00;;;;5048664;28;20289;-70
2021/01/07 06:57:47;;;;;;;3.80;2.20;;;4.80;93.10;12.50;99104.00;;;;5032317;28;20206;-69
2021/01/07 07:00:19;;;;;;;4.10;2.47;;;4.80;93.10;12.40;99094.00;;;;5048731;28;20181;-69
2021/01/07 07:03:03;;;;;;;4.13;2.70;;;4.80;93.10;12.30;99106.00;;;;5048146;28;20213;-69
2021/01/07 07:05:34;;;;;;;4.60;2.50;;;4.80;93.10;12.50;99091.00;;;;5048707;28;20178;-69
2021/01/07 07:08:13;;;;;;;4.15;2.55;;;4.80;93.10;12.40;99125.00;;;;5048318;28;20198;-69
2021/01/07 07:10:39;;;;;;;3.72;2.10;;;4.80;93.10;12.40;99128.00;;;;5048275;28;20201;-69
2021/01/07 07:13:18;;;;;;;4.70;2.70;;;4.80;93.10;12.30;99125.00;;;;5049462;28;20194;-69
2021/01/07 07:15:45;;;;;;;3.53;2.13;;;4.80;93.10;12.50;99129.00;;;;5031224;28;20634;-69
2021/01/07 07:18:11;;;;;;;3.80;2.40;;;4.80;93.10;12.50;99111.00;;;;5048306;28;20645;-69
2021/01/07 07:20:43;;;;;;;4.17;2.50;;;4.80;93.10;12.40;99139.00;;;;5048425;28;20217;-68
2021/01/07 07:23:19;;;;;;;5.07;2.20;;;4.80;93.10;12.50;99144.00;;;;5047775;28;20737;-69
2021/01/07 07:25:57;;;;;;;4.15;2.45;;;4.80;93.10;12.30;99148.00;;;;5048679;28;20188;-69
2021/01/07 07:28:25;;;;;;;3.60;1.98;;;4.80;93.10;12.40;99144.00;;;;5048907;28;20206;-69
2021/01/07 07:30:51;;;;;;;5.15;2.65;;;4.80;93.10;12.40;99159.00;;;;5048201;28;20174;-69
2021/01/07 07:33:33;;;;;;;4.07;2.40;;;4.80;93.10;12.30;99159.00;;;;5048400;28;20233;-69
2021/01/07 07:35:59;;;;;;;4.00;2.03;;;4.80;93.10;12.30;99149.00;;;;5048977;28;21013;-69
2021/01/07 07:38:40;;;;;;;4.00;2.50;;;4.80;93.10;12.30;99163.00;;;;5051649;28;20661;-69
2021/01/07 07:41:08;;;;;;;3.92;2.10;;;4.80;93.10;12.10;99159.00;;;;5053006;28;20210;-70
2021/01/07 07:43:35;;;;;;;4.00;2.38;;;4.80;93.10;12.40;99157.00;;;;5052136;28;20253;-69
2021/01/07 07:46:01;;;;;;;3.90;2.08;;;4.80;93.10;12.30;99157.00;;;;5052085;28;20174;-69
2021/01/07 07:48:28;;;;;;;4.55;2.28;;;4.80;93.10;12.50;99159.00;;;;5051889;28;20239;-69
2021/01/07 07:51:10;;;;;;;4.03;2.30;;;4.80;93.10;12.40;99159.00;;;;5052401;28;20185;-70
2021/01/07 07:53:39;;;;;;;3.95;2.33;;;4.80;93.10;12.40;99167.00;;;;5051567;28;20202;-69
2021/01/07 07:56:18;;;;;;;3.90;2.33;;;4.80;93.10;12.30;99168.00;;;;5051954;28;20727;-69
2021/01/07 07:58:44;;;;;;;3.72;2.30;;;4.80;93.10;12.30;99172.00;;;;5051657;28;20575;-70
2021/01/07 08:01:09;;;;;;;3.70;2.10;;;4.80;93.10;12.30;99168.00;;;;5052217;28;20265;-70
2021/01/07 08:03:35;;;;;;;4.17;2.40;;;4.80;93.10;12.30;99156.00;;;;5051160;28;20301;-69
2021/01/07 08:06:01;;;;;;;4.50;2.73;;;4.80;93.10;12.20;99178.00;;;;5032758;28;20660;-69
2021/01/07 08:08:29;;;;;;;4.30;2.70;;;4.80;93.10;12.30;99180.00;;;;5049990;28;20198;-69
2021/01/07 08:10:56;;;;;;;4.60;2.40;;;4.80;93.10;12.30;99160.00;;;;5051016;28;20185;-70
2021/01/07 08:13:24;;;;;;;3.75;2.13;;;4.80;93.10;12.40;99173.00;;;;5033357;28;20205;-69
2021/01/07 08:15:56;;;;;;;4.70;2.78;;;4.80;93.10;12.40;99186.00;;;;5051358;28;20181;-69
2021/01/07 08:18:23;;;;;;;3.47;1.73;;;4.80;93.10;12.50;99190.00;;;;5050706;28;20202;-69
2021/01/07 08:20:51;;;;;;;4.93;2.47;;;4.80;93.10;12.20;99180.00;;;;5049825;28;20194;-70
2021/01/07 08:23:18;;;;;;;4.20;2.50;;;4.80;93.10;12.30;99174.00;;;;5033982;28;20264;-69
2021/01/07 08:25:48;;;;;;;4.20;2.53;;;4.80;93.10;12.20;99168.00;;;;5034228;28;20183;-69
2021/01/07 08:28:31;;;;;;;3.65;2.10;;;4.80;93.10;12.20;99177.00;;;;5018405;28;20198;-69
2021/01/07 08:31:08;;;;;;;4.78;2.40;;;4.80;93.10;12.40;99180.00;;;;5018106;28;20186;-70
2021/01/07 08:33:34;;;;;;;4.78;2.45;;;4.80;93.10;12.00;99188.00;;;;5033947;28;20637;-69
2021/01/07 08:36:05;;;;;;;3.80;2.22;;;4.80;93.10;12.20;99184.00;;;;5034192;28;20707;-70
2021/01/07 08:38:33;;;;;;;4.43;2.85;;;4.80;93.00;12.30;99192.00;;;;5050464;28;20214;-69
2021/01/07 08:41:23;;;;;;;3.60;2.10;;;4.80;93.10;12.40;99198.00;;;;5050655;28;20235;-69
2021/01/07 08:43:53;;;;;;;4.18;2.45;;;4.80;93.00;12.10;99196.00;;;;5051520;28;20594;-69
2021/01/07 08:46:26;;;;;;;4.13;2.50;;;4.80;93.00;12.20;99191.00;;;;5050310;28;20174;-68
2021/01/07 08:49:14;;;;;;;4.00;2.60;;;4.80;93.00;12.40;99201.00;;;;5050184;28;20206;-69
2021/01/07 08:51:41;;;;;;;4.05;2.30;;;4.80;93.00;12.10;99207.00;;;;5048589;28;20229;-69
2021/01/07 08:54:13;;;;;;;4.30;2.30;;;4.80;93.00;12.10;99190.00;;;;5047625;28;20313;-68
2021/01/07 08:56:47;;;;;;;3.72;2.38;;;4.80;93.10;12.20;99194.00;;;;5049631;28;20184;-68
2021/01/07 08:59:30;;;;;;;4.00;2.50;;;4.80;93.00;12.20;99197.00;;;;5048513;28;20202;-68
2021/01/07 09:01:56;;;;;;;3.42;2.00;;;4.80;93.00;12.00;99204.00;;;;5019045;28;20432;-68
2021/01/07 09:04:33;;;;;;;4.20;2.60;;;4.80;93.00;12.20;99201.00;;;;5051154;28;20228;-69
2021/01/07 09:07:06;;;;;;;3.70;2.10;;;4.80;93.00;12.20;99206.00;;;;5050334;28;20182;-68
2021/01/07 09:09:50;;;;;;;4.93;2.30;;;4.80;93.00;12.30;99197.00;;;;5048992;28;20189;-68
2021/01/07 09:12:30;;;;;;;4.80;2.65;;;4.80;93.00;12.30;99211.00;;;;5034129;28;20228;-68
2021/01/07 09:15:09;;;;;;;3.80;2.10;;;4.80;93.00;12.30;99200.00;;;;5049489;28;20699;-68
2021/01/07 09:17:48;;;;;;;4.63;2.33;;;4.80;93.10;12.40;99199.00;;;;5050306;28;20198;-68
2021/01/07 09:20:17;;;;;;;3.20;1.90;;;4.80;93.00;12.20;99201.00;;;;5033605;28;20231;-68
2021/01/07 09:22:43;;;;;;;4.80;2.80;;;4.80;93.00;12.00;99196.00;;;;5033877;28;20198;-68
2021/01/07 09:25:18;;;;;;;5.67;2.60;;;4.80;93.00;12.30;99184.00;;;;5049191;28;20174;-69
2021/01/07 09:27:48;;;;;;;5.05;3.05;;;4.80;93.00;12.30;99198.00;;;;5019244;28;20448;-68
2021/01/07 09:30:14;;;;;;;4.57;2.83;;;4.80;93.00;12.20;99194.00;;;;5017087;28;20265;-69
2021/01/07 09:32:40;;;;;;;4.55;2.53;;;4.80;93.00;12.20;99188.00;;;;5050177;28;20286;-69
2021/01/07 09:35:06;;;;;;;4.00;2.23;;;4.80;93.00;12.20;99191.00;;;;5016934;28;20244;-68
2021/01/07 09:37:35;;;;;;;4.30;2.40;;;4.80;93.00;12.20;99195.00;;;;5032826;28;20484;-69
2021/01/07 09:40:02;;;;;;;4.43;2.50;;;4.80;93.00;12.40;99183.00;;;;5033068;28;20192;-69
2021/01/07 09:42:32;;;;;;;4.05;2.15;;;4.80;93.00;12.30;99185.00;;;;5049739;28;20202;-68
2021/01/07 09:45:02;;;;;;;3.88;2.22;;;4.80;93.00;12.40;99174.00;;;;5050634;28;20182;-69
2021/01/07 09:47:28;;;;;;;4.47;2.85;;;4.80;93.00;12.30;99182.00;;;;5033443;28;20692;-68
2021/01/07 09:49:56;;;;;;;4.50;2.40;;;4.80;93.00;12.30;99187.00;;;;5049499;28;20178;-69
2021/01/07 09:52:22;;;;;;;5.63;3.33;;;4.80;93.00;12.20;99186.00;;;;5016559;28;20255;-69
2021/01/07 09:54:48;;;;;;;4.25;2.53;;;4.80;93.40;12.20;99182.00;;;;5033156;28;20209;-69
2021/01/07 09:57:14;;;;;;;4.27;2.53;;;4.80;93.00;12.30;99186.00;;;;5016888;28;20202;-68
2021/01/07 09:59:40;;;;;;;4.80;2.80;;;4.80;93.00;12.20;99173.00;;;;5050147;28;20208;-69
2021/01/07 10:02:08;;;;;;;5.47;2.93;;;4.80;93.00;12.40;99182.00;;;;5050758;28;20438;-68
2021/01/07 10:04:34;;;;;;;4.38;2.78;;;4.80;93.00;12.40;99177.00;;;;5016876;28;20441;-68
2021/01/07 10:06:59;;;;;;;3.97;2.53;;;4.80;93.00;12.40;99179.00;;;;5032794;28;20178;-68
2021/01/07 10:09:25;;;;;;;4.67;2.90;;;4.80;93.00;12.40;99179.00;;;;5049297;28;20428;-68
2021/01/07 10:11:53;;;;;;;4.47;2.50;;;4.80;93.00;12.30;99188.00;;;;5049741;28;20254;-68
2021/01/07 10:14:19;;;;;;;5.13;3.22;;;4.80;93.00;12.10;99164.00;;;;5049343;28;20209;-69
2021/01/07 10:17:05;;;;;;;6.40;3.00;;;4.80;93.00;12.40;99159.00;;;;5049086;28;20205;-68
2021/01/07 10:19:33;;;;;;;4.00;2.85;;;4.80;93.00;12.40;99170.00;;;;5032515;28;20193;-68
2021/01/07 10:22:06;;;;;;;4.30;2.80;;;4.80;93.00;12.50;99167.00;;;;5032873;28;20186;-69
2021/01/07 10:24:33;;;;;;;4.70;2.97;;;4.80;93.00;12.40;99171.00;;;;5031967;28;20236;-68
2021/01/07 10:27:04;;;;;;;4.10;2.60;;;4.80;93.00;12.40;99161.00;;;;5016087;28;20326;-68
2021/01/07 10:29:31;;;;;;;5.13;3.20;;;4.80;93.00;12.40;99157.00;;;;5048750;28;20186;-68
2021/01/07 10:32:03;;;;;;;4.57;3.10;;;4.80;93.00;12.40;99159.00;;;;5015563;28;20229;-68
2021/01/07 10:34:29;;;;;;;4.63;2.90;;;4.80;93.00;12.40;99162.00;;;;5015944;28;20247;-68
2021/01/07 10:36:54;;;;;;;5.53;3.50;;;4.80;93.00;12.40;99171.00;;;;5031701;28;20178;-69
2021/01/07 10:39:21;;;;;;;4.83;3.33;;;4.80;93.00;12.30;99162.00;;;;4998612;28;20517;-69
2021/01/07 10:41:50;;;;;;;4.65;3.13;;;4.80;93.00;12.40;99164.00;;;;5031448;28;20182;-68
2021/01/07 10:44:18;;;;;;;5.28;3.35;;;4.80;93.00;12.40;99175.00;;;;5031359;28;20182;-69
2021/01/07 10:46:44;;;;;;;5.85;3.88;;;4.80;93.00;12.30;99165.00;;;;5049291;28;20217;-68
2021/01/07 10:49:12;;;;;;;5.47;3.80;;;4.80;93.00;12.10;99165.00;;;;5047698;28;20210;-70
2021/01/07 10:51:51;;;;;;;4.95;3.47;;;4.80;93.00;12.30;99178.00;;;;5047569;28;20174;-69
2021/01/07 10:55:01;;;;;;;5.38;3.20;;;4.80;93.00;12.50;99177.00;;;;5047432;28;20205;-69
2021/01/07 10:58:06;;;;;;;5.57;3.42;;;4.80;93.00;12.30;99174.00;;;;5048745;28;20200;-69
2021/01/07 11:01:15;;;;;;;4.88;2.80;;;4.80;93.00;12.10;99171.00;;;;5049035;28;20228;-68
2021/01/07 11:04:02;;;;;;;4.18;2.97;;;4.80;93.00;12.20;99159.00;;;;5049450;28;20734;-69
2021/01/07 11:06:32;;;;;;;4.15;2.65;;;4.80;93.00;12.20;99161.00;;;;5048722;28;20181;-69
2021/01/07 11:09:19;;;;;;;4.63;2.92;;;4.80;93.40;12.30;99179.00;;;;5047453;28;20194;-69